• Join FlightAware (Why Join?)
  • Login
  • US Flag 
06:09PM EDT


 

Airport Tracker/Info


-or-


 

Live Flight TrackerFlight Track Log ✈ N36579 ✈ 07-Jun-2007 ✈ KGFK - KICT

Flight Track Log - Related Links

Times and Time Zones

All times are in EDT time to prevent confusion due to time zone crossing. See the N36579 flight status page for this flight to view local times or setup timezone preferences in your user account.

Time Position Orientation Groundspeed Altitude Reporting Facility
EDT Latitude Longitude Course Direction KTS MPH feet Rate Location/Type
03:23PM 47.9500 -97.1500 180° South 281 323 21,000  Level
03:24PM 47.9000 -97.1500 180° South 251 289 21,000  Level
03:24PM 47.8833 -97.1500 180° South 242 278 21,000 -13,020 Level
03:25PM 47.8167 -97.1500 180° South 237 273 5,600 -6,720 Descending
03:26PM 47.7667 -97.1500 180° South 213 245 7,600 1,800 Climbing
03:27PM 47.7167 -97.1500 180° South 198 228 9,300 1,620 Climbing
03:28PM 47.6667 -97.1500 199° South 188 216 10,900 1,680 Climbing
03:29PM 47.6333 -97.1667 193° South 183 211 12,700 1,620 Climbing
03:30PM 47.5833 -97.1833 193° South 178 205 14,200 1,500 Climbing
03:31PM 47.5333 -97.2000 193° South 183 211 15,700 1,440 Climbing
03:32PM 47.4833 -97.2167 193° South 188 216 17,100 1,620 Climbing
03:33PM 47.4333 -97.2333 190° South 188 216 19,000 1,500 Climbing
03:34PM 47.3667 -97.2500 204° Southwest 199 229 20,200 960 Climbing
03:35PM 47.3167 -97.2833 190° South 204 235 21,000 360 Climbing
03:36PM 47.2500 -97.3000 188° South 224 258 21,000  Level
03:37PM 47.1667 -97.3167 180° South 246 283 21,000  Level
03:38PM 47.1000 -97.3167 172° South 268 308 21,000  Level
03:39PM 47.0167 -97.3000 180° South 287 330 21,000  Level
03:40PM 46.9333 -97.3000 180° South 287 330 21,000  Level
03:41PM 46.8500 -97.3000 180° South 287 330 21,000  Level
03:42PM 46.7833 -97.3000 180° South 287 330 21,000  Level
03:43PM 46.7000 -97.3000 190° South 282 325 21,000  Level
03:44PM 46.6333 -97.3167 180° South 272 313 21,000  Level
03:45PM 46.5500 -97.3167 180° South 272 313 21,000  Level
03:46PM 46.4833 -97.3167 180° South 272 313 21,000  Level
03:47PM 46.4000 -97.3167 180° South 272 313 21,000  Level
03:48PM 46.3333 -97.3167 180° South 272 313 21,000  Level
03:49PM 46.2500 -97.3167 180° South 272 313 21,000  Level
03:50PM 46.1833 -97.3167 180° South 272 313 21,000  Level
03:51PM 46.1167 -97.3167 180° South 267 307 21,000  Level
03:52PM 46.0500 -97.3167 180° South 262 302 21,000  Level
03:53PM 45.9667 -97.3167 180° South 262 302 21,000  Level
03:54PM 45.9000 -97.3167 180° South 267 307 21,000  Level
03:55PM 45.8167 -97.3167 180° South 273 314 21,000  Level
03:56PM 45.7500 -97.3167 180° South 273 314 21,000  Level
03:57PM 45.6667 -97.3167 190° South 273 314 21,000  Level
03:58PM 45.6000 -97.3333 170° South 268 308 21,000  Level
03:59PM 45.5333 -97.3167 188° South 268 308 21,000  Level
04:00PM 45.4500 -97.3333 180° South 268 308 21,000  Level
04:01PM 45.3833 -97.3333 180° South 262 302 21,000  Level
04:02PM 45.3167 -97.3333 180° South 262 302 21,000  Level
04:03PM 45.2333 -97.3333 180° South 267 307 21,000  Level
04:04PM 45.1667 -97.3333 180° South 273 314 21,000  Level
04:05PM 45.0833 -97.3333 180° South 278 320 21,000  Level
04:06PM 45.0167 -97.3333 180° South 273 314 21,000  Level
04:07PM 44.9333 -97.3333 180° South 275 316 21,000  Level
04:08PM 44.8667 -97.3333 180° South 269 310 21,000  Level
04:09PM 44.7833 -97.3333 190° South 269 310 21,000  Level
04:10PM 44.7167 -97.3500 180° South 275 316 21,000  Level
04:11PM 44.6500 -97.3500 180° South 275 316 21,000  Level
04:12PM 44.5667 -97.3500 180° South 275 316 21,000  Level
04:13PM 44.5000 -97.3500 180° South 270 311 21,000  Level
04:14PM 44.4167 -97.3500 180° South 270 311 21,000  Level
04:15PM 44.3500 -97.3500 190° South 270 311 21,000  Level
04:16PM 44.2833 -97.3667 188° South 275 316 21,000  Level
04:17PM 44.2000 -97.3833 200° South 268 308 21,000  Level
04:18PM 44.1333 -97.4167 190° South 262 302 21,000  Level
04:19PM 44.0667 -97.4333 180° South 262 302 21,000  Level
04:20PM 44.0000 -97.4333 180° South 262 302 21,000  Level
04:21PM 43.9167 -97.4333 170° South 262 302 21,000  Level
04:22PM 43.8500 -97.4167 188° South 262 302 21,000  Level
04:23PM 43.7667 -97.4333 170° South 267 307 21,000  Level
04:24PM 43.7000 -97.4167 190° South 267 307 21,000  Level
04:25PM 43.6333 -97.4333 180° South 267 307 21,000  Level
04:26PM 43.5667 -97.4333 180° South 262 302 21,000  Level
04:27PM 43.4833 -97.4333 180° South 262 302 21,000  Level
04:28PM 43.4167 -97.4333 180° South 257 296 21,000  Level
04:29PM 43.3500 -97.4333 180° South 252 290 21,000  Level
04:30PM 43.2833 -97.4333 180° South 252 290 21,000  Level
04:31PM 43.2167 -97.4333 180° South 252 290 21,000  Level
04:32PM 43.1500 -97.4333 180° South 247 284 21,000  Level
04:33PM 43.0833 -97.4333 180° South 247 284 21,000  Level
04:34PM 43.0167 -97.4333 180° South 247 284 21,000  Level
04:35PM 42.9500 -97.4333 180° South 242 278 21,000  Level
04:36PM 42.8833 -97.4333 180° South 242 278 21,000  Level
04:37PM 42.8167 -97.4333 180° South 242 278 21,000  Level
04:38PM 42.7500 -97.4333 180° South 247 284 21,000  Level
04:39PM 42.6833 -97.4333 180° South 247 284 21,000  Level
04:40PM 42.6167 -97.4333 180° South 253 291 21,000  Level
04:41PM 42.5500 -97.4333 180° South 253 291 21,000  Level
04:42PM 42.4833 -97.4333 180° South 253 291 21,000  Level
04:43PM 42.4167 -97.4333 180° South 253 291 21,000  Level
04:44PM 42.3500 -97.4333 180° South 248 285 21,000  Level
04:45PM 42.2833 -97.4333 180° South 242 278 21,000  Level
04:46PM 42.2167 -97.4333 180° South 235 270 21,000  Level
04:47PM 42.1667 -97.4333 180° South 235 270 21,000  Level
04:48PM 42.1000 -97.4333 180° South 235 270 21,000  Level
04:49PM 42.0333 -97.4333 180° South 235 270 21,000  Level
04:50PM 41.9833 -97.4333 180° South 230 265 21,000  Level
04:51PM 41.9167 -97.4333 180° South 230 265 21,000  Level
04:52PM 41.8500 -97.4333 180° South 223 257 21,000  Level
04:53PM 41.8000 -97.4333 180° South 216 249 21,000  Level
04:54PM 41.7333 -97.4333 180° South 216 249 21,000  Level
04:55PM 41.6833 -97.4333 180° South 216 249 21,000  Level
04:56PM 41.6333 -97.4333 180° South 216 249 21,000  Level
04:57PM 41.5667 -97.4333 180° South 216 249 21,000  Level
04:58PM 41.5167 -97.4333 180° South 216 249 21,000  Level
04:59PM 41.4500 -97.4333 180° South 216 249 21,000  Level
05:00PM 41.4000 -97.4333 180° South 211 243 21,000  Level
05:01PM 41.3500 -97.4333 180° South 211 243 21,000  Level
05:02PM 41.2833 -97.4333 180° South 205 236 21,000  Level
05:03PM 41.2333 -97.4333 180° South 205 236 21,000  Level
05:04PM 41.1667 -97.4333 180° South 217 250 21,000  Level
05:05PM 41.1167 -97.4333 180° South 217 250 21,000  Level
05:06PM 41.0500 -97.4333 180° South 217 250 21,000  Level
05:07PM 41.0000 -97.4333 180° South 217 250 21,000  Level
05:08PM 40.9333 -97.4333 180° South 217 250 21,000  Level
05:09PM 40.8833 -97.4333 180° South 217 250 21,000  Level
05:10PM 40.8167 -97.4333 180° South 217 250 21,000  Level
05:11PM 40.7667 -97.4333 180° South 217 250 21,000  Level
05:12PM 40.7000 -97.4333 180° South 217 250 21,000  Level
05:13PM 40.6500 -97.4333 180° South 217 250 21,000  Level
05:14PM 40.5833 -97.4333 180° South 217 250 21,000  Level
05:15PM 40.5333 -97.4333 180° South 217 250 21,000  Level
05:16PM 40.4667 -97.4333 180° South 217 250 21,000  Level
05:17PM 40.4167 -97.4333 180° South 217 250 21,000  Level
05:18PM 40.3500 -97.4333 180° South 217 250 21,000  Level
05:19PM 40.3000 -97.4333 180° South 217 250 21,000  Level
05:20PM 40.2333 -97.4333 180° South 212 244 21,000  Level
05:23PM 40.0167 -97.4333 180° South 199 229 21,000  Level
05:24PM 39.9667 -97.4333 180° South 194 223 21,000  Level
05:25PM 39.9167 -97.4333 180° South 199 229 21,000  Level
05:26PM 39.8500 -97.4333 180° South 199 229 21,000  Level
05:27PM 39.7833 -97.4333 180° South 199 229 21,000  Level
05:28PM 39.7333 -97.4333 180° South 222 255 21,000  Level
05:29PM 39.6667 -97.4333 180° South 208 239 21,000  Level
05:30PM 39.6000 -97.4333 180° South 214 246 21,000  Level
05:31PM 39.5500 -97.4333 180° South 214 246 21,000  Level
05:32PM 39.4833 -97.4333 180° South 207 238 21,000  Level
05:33PM 39.4333 -97.4333 180° South 207 238 21,000  Level
05:34PM 39.3833 -97.4333 180° South 207 238 21,000  Level
05:35PM 39.3167 -97.4333 180° South 212 244 21,000 -360 Level
05:36PM 39.2500 -97.4333 180° South 218 251 20,300 -900 Descending
05:37PM 39.1833 -97.4333 180° South 229 264 19,300 -1,020 Descending
05:38PM 39.1167 -97.4333 180° South 240 276 18,300 -1,260 Descending
05:40PM 39.0500 -97.4333 180° South 245 282 16,800 -1,200 Descending
05:40PM 38.9833 -97.4333 180° South 245 282 15,900 -900 Descending
05:41PM 38.9167 -97.4333 180° South 245 282 15,100 -840 Descending
05:42PM 38.8500 -97.4333 180° South 245 282 14,300 -780 Descending
05:43PM 38.7833 -97.4333 180° South 245 282 13,600 -660 Descending
05:44PM 38.7167 -97.4333 180° South 240 276 13,000 -600 Descending
05:45PM 38.6500 -97.4333 180° South 235 270 12,500 -600 Descending
05:46PM 38.5833 -97.4333 180° South 235 270 11,800 -600 Descending
05:47PM 38.5167 -97.4333 180° South 235 270 11,300 -600 Descending
05:48PM 38.4500 -97.4333 180° South 235 270 10,700 -600 Descending
05:49PM 38.3833 -97.4333 180° South 240 276 10,200 -600 Descending
05:50PM 38.3167 -97.4333 180° South 246 283 9,500 -660 Descending
05:51PM 38.2500 -97.4333 180° South 252 290 8,900 -600 Descending
05:52PM 38.1833 -97.4333 180° South 252 290 8,300 -600 Descending
05:53PM 38.1000 -97.4333 180° South 252 290 7,700 -600 Descending
05:54PM 38.0333 -97.4333 158° South 252 290 7,100 -600 Descending
05:56PM 37.9667 -97.4000 152° Southeast 252 290 6,500 6,900 Descending
05:56PM 37.9167 -97.3667 165° South 241 277 21,000 7,260 Climbing
05:57PM 37.8667 -97.3500 152° Southeast 217 250 21,000 -8,280 Level
05:58PM 37.8167 -97.3167 201° Southwest 190 219 4,500 -8,520 Descending
05:59PM 37.7833 -97.3333 202° Southwest 163 188 4,000 -600 Descending
06:01PM 37.7500 -97.3500 218° Southwest 156 180 3,300 -720 Descending
06:01PM 37.7167 -97.3833 218° Southwest 146 168 2,600 -660 Descending
06:03PM 37.6833 -97.4167 202° Southwest 140 161 2,000 -600 Descending
06:04PM 37.6500 -97.4333 202° Southwest 129 148 1,400 -600 Descending